Página principal
Imagens de satélite Previsões 10 diasClimaMeteorologia maritima Ciclones Descargas eléctricas AeroportosFAQ Notícias Sobre
Tempo : Europa África América do Norte América do Sul Ásia Austrália-Oceania Outros
Línguas Contacto

Cambridge, Inglaterra

latitude: 52-12N, longitude: 000-11E, altura: 15 m


METAR: EGSC 011220Z 14012KT 100V180 CAVOK 33/15 Q1011
TAF: EGSC 011104Z 0112/0121 13008KT 9999 FEW048

Hora: 13:45 (12:45 UTC)

Observação actual do tempo

O boletim foi feito há 25 minutos, às 12:20 UTC
Vento 12 kt de sudeste, variando entre este e sul
Temperatura 33°C
Humidade 34%
Pressão 1011 hPa
Visibilidade 10 km ou mais
sem nuvens abaixo de 1500 metros e sem cumulonimbus

Mudar unidades

Previsão

O boletim foi feito há 1 hora e 41 minutos, às 11:04 UTC
Previsão válida de 01 às 12 UTC a 01 às 21 UTC
Vento 8 kt de sudeste
Visibilidade 10 km ou mais
Poucas nuvensa uma altura de 4800 ft
As informações contidas neste sítio estão sujeitas a uma declaração de exoneração de responsabilidade
Tempo : Europa África América do Norte América do Sul Ásia Austrália-Oceania Outros
Imagens de satélite Previsões 10 diasClimaMeteorologia maritima Ciclones Descargas eléctricas AeroportosFAQ Línguas Contacto Notícias Sobre